Time;durP1;ratioP1;P1;durP2;ratioP2;P2;SDS_P1;SDS_P2;PMS_P1;PMS_P2;Temp;Humidity;BMP_temperature;BMP_pressure;BME280_temperature;BME280_humidity;BME280_pressure;Samples;Min_cycle;Max_cycle;Signal;HPM_P1;HPM_P2
2022/08/07 00:00:48;;;;;;;6.70;6.20;;;;;;;;;;5054703;28;20390;-82
2022/08/07 00:03:14;;;;;;;6.75;6.25;;;;;;;;;;5036859;28;20408;-82
2022/08/07 00:05:40;;;;;;;7.00;6.50;;;;;;;;;;5054776;28;20373;-82
2022/08/07 00:08:06;;;;;;;6.70;6.20;;;;;;;;;;5054608;28;20369;-82
2022/08/07 00:10:32;;;;;;;7.30;6.80;;;;;;;;;;5055138;28;20838;-82
2022/08/07 00:13:00;;;;;;;6.73;6.17;;;;;;;;;;5054652;28;20377;-82
2022/08/07 00:15:26;;;;;;;6.75;6.25;;;;;;;;;;5054508;28;20383;-82
2022/08/07 00:17:52;;;;;;;6.65;6.15;;;;;;;;;;5054447;28;20385;-82
2022/08/07 00:20:18;;;;;;;6.50;6.10;;;;;;;;;;5054405;28;20874;-82
2022/08/07 00:22:44;;;;;;;7.20;6.70;;;;;;;;;;5054350;28;20409;-82
2022/08/07 00:25:10;;;;;;;6.60;6.20;;;;;;;;;;5054328;28;20913;-82
2022/08/07 00:27:36;;;;;;;7.00;6.50;;;;;;;;;;5054024;28;20423;-82
2022/08/07 00:30:03;;;;;;;7.03;6.43;;;;;;;;;;5054254;28;20443;-82
2022/08/07 00:32:29;;;;;;;7.30;6.70;;;;;;;;;;5053917;28;20386;-82
2022/08/07 00:34:55;;;;;;;7.55;7.05;;;;;;;;;;5054372;28;20723;-82
2022/08/07 00:37:21;;;;;;;8.38;7.78;;;;;;;;;;5036171;28;20578;-82
2022/08/07 00:39:47;;;;;;;8.23;7.53;;;;;;;;;;5053927;28;20866;-82
2022/08/07 00:42:13;;;;;;;8.80;8.17;;;;;;;;;;5053873;28;20416;-82
2022/08/07 00:44:39;;;;;;;8.77;8.18;;;;;;;;;;5053911;28;20382;-82
2022/08/07 00:47:07;;;;;;;8.70;8.10;;;;;;;;;;5053854;28;20866;-81
2022/08/07 00:49:33;;;;;;;9.10;8.35;;;;;;;;;;5053796;28;20523;-82
2022/08/07 00:51:59;;;;;;;9.60;8.60;;;;;;;;;;5053904;28;20381;-82
2022/08/07 00:54:25;;;;;;;9.23;8.63;;;;;;;;;;5054022;28;20373;-82
2022/08/07 00:56:51;;;;;;;9.05;8.38;;;;;;;;;;5053799;28;20407;-82
2022/08/07 00:59:18;;;;;;;8.82;8.10;;;;;;;;;;5053867;28;20389;-82
2022/08/07 01:01:44;;;;;;;8.35;7.85;;;;;;;;;;5053536;28;20743;-82
2022/08/07 01:04:10;;;;;;;8.30;7.73;;;;;;;;;;5053633;28;20374;-82
2022/08/07 01:06:36;;;;;;;8.73;8.13;;;;;;;;;;5053406;28;20374;-82
2022/08/07 01:09:03;;;;;;;8.93;8.32;;;;;;;;;;5053560;28;20381;-82
2022/08/07 01:11:29;;;;;;;8.48;7.88;;;;;;;;;;5053413;28;20431;-82
2022/08/07 01:13:56;;;;;;;8.57;8.00;;;;;;;;;;5053144;28;20378;-82
2022/08/07 01:16:22;;;;;;;8.48;7.85;;;;;;;;;;5053325;28;20469;-82
2022/08/07 01:18:48;;;;;;;8.53;7.90;;;;;;;;;;5053087;28;20373;-81
2022/08/07 01:21:15;;;;;;;8.95;8.25;;;;;;;;;;5053291;28;20385;-82
2022/08/07 01:23:42;;;;;;;8.10;7.60;;;;;;;;;;5052618;28;20898;-82
2022/08/07 01:26:09;;;;;;;8.98;8.35;;;;;;;;;;5053356;28;20735;-82
2022/08/07 01:28:36;;;;;;;8.50;7.90;;;;;;;;;;5053066;28;20389;-82
2022/08/07 01:31:03;;;;;;;8.60;7.97;;;;;;;;;;5053314;28;20385;-81
2022/08/07 01:33:29;;;;;;;9.43;8.63;;;;;;;;;;5035132;28;20949;-82
2022/08/07 01:35:56;;;;;;;8.35;7.82;;;;;;;;;;5053071;28;20400;-82
2022/08/07 01:38:22;;;;;;;8.52;7.93;;;;;;;;;;5052951;28;20877;-81
2022/08/07 01:40:49;;;;;;;9.27;8.67;;;;;;;;;;5052418;28;20393;-81
2022/08/07 01:43:15;;;;;;;9.75;8.88;;;;;;;;;;5052465;28;20408;-82
2022/08/07 01:45:41;;;;;;;9.25;8.65;;;;;;;;;;5034927;28;20734;-82
2022/08/07 01:48:07;;;;;;;9.02;8.43;;;;;;;;;;5052716;28;20806;-82
2022/08/07 01:50:36;;;;;;;9.27;8.68;;;;;;;;;;5052768;28;20386;-82
2022/08/07 01:53:02;;;;;;;9.10;8.50;;;;;;;;;;5052886;28;20435;-82
2022/08/07 01:55:32;;;;;;;9.18;8.52;;;;;;;;;;5034993;28;20381;-82
2022/08/07 01:58:00;;;;;;;9.60;8.90;;;;;;;;;;5034412;28;20385;-82
2022/08/07 02:00:27;;;;;;;8.63;7.93;;;;;;;;;;5052625;28;20389;-81
2022/08/07 02:02:55;;;;;;;9.75;9.15;;;;;;;;;;5050861;28;20409;-81
2022/08/07 02:05:32;;;;;;;8.80;8.20;;;;;;;;;;5040519;28;20492;-82
2022/08/07 02:08:01;;;;;;;9.70;9.00;;;;;;;;;;5045927;28;20373;-83
2022/08/07 02:10:27;;;;;;;9.55;8.85;;;;;;;;;;5050946;28;20894;-82
2022/08/07 02:12:55;;;;;;;9.07;8.48;;;;;;;;;;5050922;28;20418;-81
2022/08/07 02:15:22;;;;;;;8.85;8.15;;;;;;;;;;5052296;28;20390;-82
2022/08/07 02:17:49;;;;;;;8.90;8.30;;;;;;;;;;5052308;28;20388;-82
2022/08/07 02:20:16;;;;;;;9.68;8.98;;;;;;;;;;5051618;28;20385;-82
2022/08/07 02:22:42;;;;;;;9.75;8.98;;;;;;;;;;5052008;28;20408;-82
2022/08/07 02:25:09;;;;;;;9.27;8.60;;;;;;;;;;5052167;28;21003;-82
2022/08/07 02:27:36;;;;;;;9.65;8.75;;;;;;;;;;5051964;28;20758;-82
2022/08/07 02:30:03;;;;;;;10.53;9.67;;;;;;;;;;5052154;28;20436;-82
2022/08/07 02:32:29;;;;;;;10.05;9.32;;;;;;;;;;5052373;28;20388;-82
2022/08/07 02:34:57;;;;;;;10.48;9.77;;;;;;;;;;5051243;28;20389;-82
2022/08/07 02:37:23;;;;;;;9.70;9.10;;;;;;;;;;5051856;28;20743;-81
2022/08/07 02:39:50;;;;;;;9.88;9.18;;;;;;;;;;5052132;28;20862;-82
2022/08/07 02:42:17;;;;;;;10.43;9.63;;;;;;;;;;5051912;28;20413;-82
2022/08/07 02:44:44;;;;;;;10.18;9.50;;;;;;;;;;5051961;28;20381;-82
2022/08/07 02:47:10;;;;;;;10.50;9.77;;;;;;;;;;5052197;28;20385;-82
2022/08/07 02:49:36;;;;;;;10.23;9.52;;;;;;;;;;5052126;28;20921;-81
2022/08/07 02:52:04;;;;;;;10.90;10.20;;;;;;;;;;5051959;28;20734;-82
2022/08/07 02:54:31;;;;;;;11.27;10.48;;;;;;;;;;5051823;28;20416;-82
2022/08/07 02:56:59;;;;;;;10.98;10.27;;;;;;;;;;5051812;28;20748;-82
2022/08/07 02:59:26;;;;;;;12.43;11.45;;;;;;;;;;5052024;28;20390;-81
2022/08/07 03:01:53;;;;;;;11.88;10.98;;;;;;;;;;5051941;28;20401;-81
2022/08/07 03:04:20;;;;;;;12.95;12.05;;;;;;;;;;5051993;28;20382;-82
2022/08/07 03:06:47;;;;;;;12.02;11.23;;;;;;;;;;5051288;28;20457;-81
2022/08/07 03:09:13;;;;;;;12.52;11.60;;;;;;;;;;5051914;28;20550;-82
2022/08/07 03:11:39;;;;;;;12.30;11.40;;;;;;;;;;5051796;28;20392;-82
2022/08/07 03:14:06;;;;;;;12.98;12.05;;;;;;;;;;5051832;28;20427;-82
2022/08/07 03:16:33;;;;;;;13.77;12.55;;;;;;;;;;5051541;28;20378;-81
2022/08/07 03:18:59;;;;;;;12.68;11.77;;;;;;;;;;5051840;28;20384;-81
2022/08/07 03:21:26;;;;;;;12.60;11.60;;;;;;;;;;5051819;28;20381;-82
2022/08/07 03:23:54;;;;;;;12.32;11.40;;;;;;;;;;5051604;28;20412;-82
2022/08/07 03:26:23;;;;;;;12.50;11.60;;;;;;;;;;5051467;28;20390;-82
2022/08/07 03:28:49;;;;;;;12.63;11.73;;;;;;;;;;5051735;28;20930;-81
2022/08/07 03:31:18;;;;;;;13.20;12.20;;;;;;;;;;5051770;28;20389;-82
2022/08/07 03:33:49;;;;;;;13.57;12.57;;;;;;;;;;5051498;28;20881;-82
2022/08/07 03:36:16;;;;;;;11.77;10.98;;;;;;;;;;5051520;28;20804;-82
2022/08/07 03:38:42;;;;;;;12.52;11.60;;;;;;;;;;5033145;28;20766;-81
2022/08/07 03:41:08;;;;;;;12.40;11.50;;;;;;;;;;5051367;28;20747;-81
2022/08/07 03:43:35;;;;;;;12.00;11.10;;;;;;;;;;5039351;28;20409;-81
2022/08/07 03:46:05;;;;;;;12.40;11.45;;;;;;;;;;5051602;28;20377;-82
2022/08/07 03:48:32;;;;;;;12.15;11.25;;;;;;;;;;5054342;28;20373;-82
2022/08/07 03:50:59;;;;;;;12.07;11.10;;;;;;;;;;5044925;28;20402;-82
2022/08/07 03:53:25;;;;;;;12.10;11.20;;;;;;;;;;5035641;28;20425;-83
2022/08/07 03:55:52;;;;;;;12.07;11.25;;;;;;;;;;5042990;28;20392;-82
2022/08/07 03:58:20;;;;;;;11.45;10.65;;;;;;;;;;5053113;28;20390;-82
2022/08/07 04:00:48;;;;;;;11.63;10.70;;;;;;;;;;5053081;28;20409;-82
2022/08/07 04:03:14;;;;;;;11.53;10.73;;;;;;;;;;5051061;28;20739;-83
2022/08/07 04:05:40;;;;;;;12.80;11.82;;;;;;;;;;5053262;28;20423;-82
2022/08/07 04:08:06;;;;;;;12.70;11.70;;;;;;;;;;5053282;28;20377;-82
2022/08/07 04:10:32;;;;;;;11.80;10.90;;;;;;;;;;5053211;28;20941;-83
2022/08/07 04:12:58;;;;;;;12.63;11.63;;;;;;;;;;5053643;28;20389;-82
2022/08/07 04:15:24;;;;;;;11.80;11.00;;;;;;;;;;5053660;28;20382;-82
2022/08/07 04:17:51;;;;;;;11.40;10.50;;;;;;;;;;5053123;28;20455;-83
2022/08/07 04:20:18;;;;;;;11.50;10.70;;;;;;;;;;5054165;28;20781;-82
2022/08/07 04:22:44;;;;;;;11.68;10.77;;;;;;;;;;5054490;28;20405;-82
2022/08/07 04:25:10;;;;;;;12.15;11.15;;;;;;;;;;5054437;28;20735;-83
2022/08/07 04:27:36;;;;;;;12.45;11.55;;;;;;;;;;5054185;28;20397;-83
2022/08/07 04:30:03;;;;;;;12.30;11.40;;;;;;;;;;5054322;28;20460;-83
2022/08/07 04:32:29;;;;;;;11.75;10.85;;;;;;;;;;5054380;28;20879;-83
2022/08/07 04:34:56;;;;;;;12.10;11.18;;;;;;;;;;5054150;28;20390;-83
2022/08/07 04:37:22;;;;;;;11.50;10.70;;;;;;;;;;5053867;28;20386;-83
2022/08/07 04:39:48;;;;;;;11.48;10.68;;;;;;;;;;5054884;28;20466;-82
2022/08/07 04:42:14;;;;;;;12.30;11.40;;;;;;;;;;5054008;28;20432;-83
2022/08/07 04:44:40;;;;;;;12.27;11.48;;;;;;;;;;5054065;28;20409;-83
2022/08/07 04:47:09;;;;;;;12.73;11.73;;;;;;;;;;5054437;28;20383;-82
2022/08/07 04:49:41;;;;;;;12.50;11.50;;;;;;;;;;5053954;28;20381;-83
2022/08/07 04:52:25;;;;;;;12.82;11.68;;;;;;;;;;5054102;28;20892;-83
2022/08/07 04:54:57;;;;;;;11.57;10.52;;;;;;;;;;5053860;28;20388;-83
2022/08/07 04:57:32;;;;;;;12.93;11.93;;;;;;;;;;5053599;28;20481;-83
2022/08/07 04:59:58;;;;;;;13.73;12.63;;;;;;;;;;5053290;28;20778;-83
2022/08/07 05:02:27;;;;;;;12.68;11.77;;;;;;;;;;5053773;28;20405;-83
2022/08/07 05:04:58;;;;;;;13.73;12.65;;;;;;;;;;5053638;28;20858;-83
2022/08/07 05:07:32;;;;;;;13.63;12.50;;;;;;;;;;5053511;28;20388;-82
2022/08/07 05:10:00;;;;;;;14.02;12.93;;;;;;;;;;5053659;28;20787;-82
2022/08/07 05:12:52;;;;;;;14.02;12.98;;;;;;;;;;5053390;28;20378;-82
2022/08/07 05:15:22;;;;;;;14.68;13.35;;;;;;;;;;5049811;28;20469;-83
2022/08/07 05:17:49;;;;;;;14.40;13.40;;;;;;;;;;5053488;28;20381;-82
2022/08/07 05:20:16;;;;;;;15.02;13.82;;;;;;;;;;5053396;28;20435;-83
2022/08/07 05:22:44;;;;;;;14.77;13.68;;;;;;;;;;5053369;28;20502;-83
2022/08/07 05:25:11;;;;;;;14.13;13.10;;;;;;;;;;5053380;28;20377;-83
2022/08/07 05:27:37;;;;;;;14.10;13.10;;;;;;;;;;5053133;28;20451;-83
2022/08/07 05:30:04;;;;;;;13.93;12.82;;;;;;;;;;5053329;28;20777;-83
2022/08/07 05:32:30;;;;;;;14.75;13.65;;;;;;;;;;5052855;28;20385;-83
2022/08/07 05:34:57;;;;;;;12.95;12.05;;;;;;;;;;5047347;28;20393;-82
2022/08/07 05:37:23;;;;;;;13.60;12.60;;;;;;;;;;5051690;28;20854;-84
2022/08/07 05:39:50;;;;;;;13.20;12.20;;;;;;;;;;5053071;28;20868;-83
2022/08/07 05:42:16;;;;;;;13.55;12.55;;;;;;;;;;5052923;28;20412;-83
2022/08/07 05:44:42;;;;;;;12.73;11.82;;;;;;;;;;5052545;28;20389;-83
2022/08/07 05:47:08;;;;;;;12.75;11.85;;;;;;;;;;5052873;28;20790;-82
2022/08/07 05:49:34;;;;;;;13.20;12.30;;;;;;;;;;5052863;28;20374;-83
2022/08/07 05:52:00;;;;;;;12.05;11.25;;;;;;;;;;5052993;28;20869;-82
2022/08/07 05:54:26;;;;;;;12.93;11.97;;;;;;;;;;5052769;28;20386;-84
2022/08/07 05:56:54;;;;;;;12.95;11.93;;;;;;;;;;5052988;28;20459;-83
2022/08/07 05:59:20;;;;;;;12.77;11.73;;;;;;;;;;5052712;28;20821;-83
2022/08/07 06:01:47;;;;;;;13.20;12.18;;;;;;;;;;5052573;28;20794;-83
2022/08/07 06:04:16;;;;;;;13.38;12.27;;;;;;;;;;5052928;28;20373;-83
2022/08/07 06:06:42;;;;;;;13.05;11.98;;;;;;;;;;5052550;28;20381;-83
2022/08/07 06:09:08;;;;;;;13.27;12.27;;;;;;;;;;5052429;28;20396;-84
2022/08/07 06:11:35;;;;;;;12.88;11.88;;;;;;;;;;5052469;28;20859;-82
2022/08/07 06:14:01;;;;;;;13.10;12.03;;;;;;;;;;5052595;28;20377;-83
2022/08/07 06:16:32;;;;;;;13.30;12.25;;;;;;;;;;5052264;28;20385;-82
2022/08/07 06:18:59;;;;;;;13.15;12.10;;;;;;;;;;5052228;28;20447;-83
2022/08/07 06:21:25;;;;;;;12.80;11.73;;;;;;;;;;5052255;28;20432;-83
2022/08/07 06:23:51;;;;;;;12.97;11.97;;;;;;;;;;5052242;28;20401;-82
2022/08/07 06:26:17;;;;;;;12.98;11.88;;;;;;;;;;5050648;28;21640;-82
2022/08/07 06:28:51;;;;;;;13.70;12.63;;;;;;;;;;5051778;28;20394;-82
2022/08/07 06:31:17;;;;;;;12.32;11.40;;;;;;;;;;5052177;28;20388;-82
2022/08/07 06:33:44;;;;;;;12.80;11.70;;;;;;;;;;5052141;28;20389;-83
2022/08/07 06:36:10;;;;;;;13.18;12.18;;;;;;;;;;5052054;28;20526;-83
2022/08/07 06:38:37;;;;;;;13.27;12.27;;;;;;;;;;5045540;28;20397;-83
2022/08/07 06:41:05;;;;;;;12.77;11.77;;;;;;;;;;5049471;28;20412;-83
2022/08/07 06:43:34;;;;;;;12.40;11.40;;;;;;;;;;5050930;28;20416;-84
2022/08/07 06:46:00;;;;;;;12.05;11.18;;;;;;;;;;5048733;28;20392;-84
2022/08/07 06:48:29;;;;;;;11.90;11.00;;;;;;;;;;5045802;28;20440;-83
2022/08/07 06:50:56;;;;;;;11.27;10.48;;;;;;;;;;5051909;28;20386;-84
2022/08/07 06:53:23;;;;;;;11.13;10.32;;;;;;;;;;5046755;28;20451;-83
2022/08/07 06:55:50;;;;;;;10.70;9.90;;;;;;;;;;5044512;28;20378;-83
2022/08/07 06:58:16;;;;;;;11.33;10.43;;;;;;;;;;5051708;28;20382;-83
2022/08/07 07:00:43;;;;;;;10.30;9.60;;;;;;;;;;5049642;28;20405;-84
2022/08/07 07:03:11;;;;;;;10.07;9.30;;;;;;;;;;5051310;28;20769;-85
2022/08/07 07:05:37;;;;;;;10.23;9.53;;;;;;;;;;5051796;28;20396;-84
2022/08/07 07:08:04;;;;;;;10.30;9.50;;;;;;;;;;5051192;28;20842;-84
2022/08/07 07:10:34;;;;;;;9.48;8.75;;;;;;;;;;5052121;28;20512;-85
2022/08/07 07:13:21;;;;;;;9.75;8.95;;;;;;;;;;5051863;28;20460;-85
2022/08/07 07:15:50;;;;;;;8.75;8.15;;;;;;;;;;5051451;28;20451;-84
2022/08/07 07:18:24;;;;;;;9.63;8.85;;;;;;;;;;5050616;28;20389;-83
2022/08/07 07:20:58;;;;;;;8.93;8.23;;;;;;;;;;5051708;28;20460;-85
2022/08/07 07:23:25;;;;;;;9.05;8.38;;;;;;;;;;5054068;28;20499;-85
2022/08/07 07:25:53;;;;;;;8.30;7.60;;;;;;;;;;5046260;28;20386;-83
2022/08/07 07:28:24;;;;;;;8.10;7.50;;;;;;;;;;5056047;28;20393;-86
2022/08/07 07:30:52;;;;;;;8.07;7.47;;;;;;;;;;5060502;28;20862;-85
2022/08/07 07:33:19;;;;;;;7.93;7.32;;;;;;;;;;5058670;28;20385;-84
2022/08/07 07:35:49;;;;;;;8.50;7.72;;;;;;;;;;5048142;28;20830;-85
2022/08/07 07:38:18;;;;;;;7.80;7.20;;;;;;;;;;5051982;28;20896;-84
2022/08/07 07:40:44;;;;;;;7.40;6.90;;;;;;;;;;5055472;28;20389;-84
2022/08/07 07:43:11;;;;;;;7.20;6.72;;;;;;;;;;5055281;28;20791;-84
2022/08/07 07:45:37;;;;;;;7.13;6.53;;;;;;;;;;5054771;28;20373;-87
2022/08/07 07:48:04;;;;;;;7.10;6.60;;;;;;;;;;5053693;28;20431;-87
2022/08/07 07:50:31;;;;;;;6.50;6.05;;;;;;;;;;5038135;28;20467;-89
2022/08/07 07:52:58;;;;;;;6.63;6.10;;;;;;;;;;5055622;28;20441;-90
2022/08/07 07:55:26;;;;;;;6.57;6.07;;;;;;;;;;5038614;28;20454;-91
2022/08/07 07:57:53;;;;;;;6.07;5.57;;;;;;;;;;5032578;28;20455;-90
2022/08/07 08:00:20;;;;;;;13.85;6.70;;;;;;;;;;5051883;28;20404;-90
2022/08/07 08:02:47;;;;;;;6.13;5.72;;;;;;;;;;5054145;28;20424;-91
2022/08/07 08:05:16;;;;;;;5.72;5.32;;;;;;;;;;5058511;28;20885;-90
2022/08/07 08:07:42;;;;;;;5.70;5.30;;;;;;;;;;5056613;28;20400;-91
2022/08/07 08:10:09;;;;;;;5.13;4.72;;;;;;;;;;5053273;28;20918;-90
2022/08/07 08:12:36;;;;;;;5.05;4.65;;;;;;;;;;5051276;28;20519;-92
2022/08/07 08:15:02;;;;;;;4.90;4.50;;;;;;;;;;5034764;28;20390;-91
2022/08/07 08:17:30;;;;;;;5.40;5.00;;;;;;;;;;5024143;28;20397;-90
2022/08/07 08:20:00;;;;;;;5.93;5.38;;;;;;;;;;5055274;28;20863;-85
2022/08/07 08:27:56;;;;;;;4.93;4.53;;;;;;;;;;5051561;28;20755;-91
2022/08/07 08:30:23;;;;;;;4.38;4.07;;;;;;;;;;5037147;28;20394;-92
2022/08/07 08:32:52;;;;;;;5.15;4.75;;;;;;;;;;5035953;28;20381;-92
2022/08/07 08:35:21;;;;;;;4.93;4.60;;;;;;;;;;5051219;28;20397;-90
2022/08/07 08:37:48;;;;;;;4.82;4.43;;;;;;;;;;5033586;28;20416;-92
2022/08/07 08:40:16;;;;;;;4.80;4.47;;;;;;;;;;5033159;28;20420;-89
2022/08/07 08:42:53;;;;;;;4.90;4.50;;;;;;;;;;5056747;28;20497;-87
2022/08/07 08:45:31;;;;;;;4.90;4.50;;;;;;;;;;5048295;28;20393;-89
2022/08/07 08:48:09;;;;;;;4.53;4.13;;;;;;;;;;5035225;28;20747;-91
2022/08/07 08:50:41;;;;;;;4.82;4.53;;;;;;;;;;5052131;28;20408;-87
2022/08/07 08:53:26;;;;;;;4.90;4.47;;;;;;;;;;5049047;28;20490;-84
2022/08/07 08:55:54;;;;;;;4.50;4.10;;;;;;;;;;5052335;28;20410;-90
2022/08/07 08:58:34;;;;;;;4.20;3.90;;;;;;;;;;5050577;28;21029;-87
2022/08/07 09:01:12;;;;;;;4.55;4.15;;;;;;;;;;5052241;28;20396;-88
2022/08/07 09:03:48;;;;;;;4.47;3.95;;;;;;;;;;5053610;28;20407;-86
2022/08/07 09:06:21;;;;;;;4.03;3.67;;;;;;;;;;5053821;28;20377;-88
2022/08/07 09:08:56;;;;;;;4.28;3.95;;;;;;;;;;5053490;28;20365;-89
2022/08/07 09:11:22;;;;;;;3.63;3.33;;;;;;;;;;5049152;28;20412;-89
2022/08/07 09:13:54;;;;;;;3.92;3.60;;;;;;;;;;5051985;28;20804;-89
2022/08/07 09:16:44;;;;;;;3.75;3.45;;;;;;;;;;5047001;28;20374;-88
2022/08/07 09:19:30;;;;;;;3.97;3.67;;;;;;;;;;5050780;28;20391;-88
2022/08/07 09:21:55;;;;;;;3.50;3.30;;;;;;;;;;5050025;28;20373;-91
2022/08/07 09:24:40;;;;;;;3.72;3.42;;;;;;;;;;5054591;28;20382;-88
2022/08/07 09:27:25;;;;;;;4.00;3.70;;;;;;;;;;5055356;28;20389;-89
2022/08/07 09:29:51;;;;;;;3.75;3.45;;;;;;;;;;5051572;28;20392;-91
2022/08/07 09:32:22;;;;;;;3.22;2.97;;;;;;;;;;5056203;28;20420;-90
2022/08/07 09:34:59;;;;;;;3.58;2.80;;;;;;;;;;5056070;28;20381;-89
2022/08/07 09:37:50;;;;;;;3.13;2.83;;;;;;;;;;5053030;28;20369;-90
2022/08/07 09:40:23;;;;;;;3.80;3.60;;;;;;;;;;5050773;28;20393;-91
2022/08/07 09:43:07;;;;;;;3.17;2.97;;;;;;;;;;5052583;28;20405;-90
2022/08/07 09:45:40;;;;;;;3.40;3.10;;;;;;;;;;5046081;28;20476;-89
2022/08/07 09:48:24;;;;;;;3.58;3.28;;;;;;;;;;5051332;28;20366;-89
2022/08/07 09:50:56;;;;;;;6.15;4.55;;;;;;;;;;5053510;28;20404;-89
2022/08/07 09:53:24;;;;;;;2.95;2.75;;;;;;;;;;5053523;28;20431;-87
2022/08/07 09:55:59;;;;;;;3.13;2.90;;;;;;;;;;5049054;28;20407;-88
2022/08/07 09:58:49;;;;;;;2.83;2.63;;;;;;;;;;5048268;28;20373;-88
2022/08/07 10:01:21;;;;;;;3.03;2.70;;;;;;;;;;5051255;28;20426;-89
2022/08/07 10:03:50;;;;;;;2.78;2.58;;;;;;;;;;5052915;28;20409;-84
2022/08/07 10:06:44;;;;;;;3.00;2.63;;;;;;;;;;5051932;28;20413;-84
2022/08/07 10:09:39;;;;;;;2.80;2.50;;;;;;;;;;5052451;28;20412;-86
2022/08/07 10:12:14;;;;;;;2.63;2.42;;;;;;;;;;4994105;28;20763;-86
2022/08/07 10:14:40;;;;;;;2.53;2.33;;;;;;;;;;5046498;28;20378;-85
2022/08/07 10:17:09;;;;;;;2.70;2.50;;;;;;;;;;5049846;28;20469;-85
2022/08/07 10:19:38;;;;;;;2.40;2.20;;;;;;;;;;5049031;28;20401;-84
2022/08/07 10:22:22;;;;;;;2.72;2.15;;;;;;;;;;5050254;28;20441;-84
2022/08/07 10:24:54;;;;;;;2.70;2.10;;;;;;;;;;5050750;28;20385;-84
2022/08/07 10:27:41;;;;;;;2.25;2.15;;;;;;;;;;5050623;28;20392;-86
2022/08/07 10:30:12;;;;;;;2.47;2.28;;;;;;;;;;5050686;28;20410;-84
2022/08/07 10:32:57;;;;;;;2.58;1.95;;;;;;;;;;5052513;28;20377;-85
2022/08/07 10:35:26;;;;;;;2.00;1.90;;;;;;;;;;5052126;28;20381;-85
2022/08/07 10:38:11;;;;;;;2.22;1.75;;;;;;;;;;5052279;28;20373;-85
2022/08/07 10:40:49;;;;;;;2.00;1.90;;;;;;;;;;5052077;28;20498;-84
2022/08/07 10:43:23;;;;;;;2.30;2.10;;;;;;;;;;5052046;28;20929;-85
2022/08/07 10:45:55;;;;;;;2.40;2.05;;;;;;;;;;5052108;28;20468;-85
2022/08/07 10:48:33;;;;;;;2.10;2.00;;;;;;;;;;5052241;28;20382;-84
2022/08/07 10:51:03;;;;;;;2.00;1.90;;;;;;;;;;5051984;28;20380;-85
2022/08/07 10:53:48;;;;;;;2.03;1.90;;;;;;;;;;5048706;28;20391;-84
2022/08/07 10:56:24;;;;;;;2.13;1.93;;;;;;;;;;5048272;28;20461;-84
2022/08/07 10:58:57;;;;;;;2.15;1.70;;;;;;;;;;5056335;28;20389;-84
2022/08/07 11:01:41;;;;;;;2.50;1.90;;;;;;;;;;5055671;28;20747;-84
2022/08/07 11:04:35;;;;;;;2.20;2.00;;;;;;;;;;5056027;28;20448;-84
2022/08/07 11:07:14;;;;;;;1.80;1.70;;;;;;;;;;5056343;28;20381;-84
2022/08/07 11:09:48;;;;;;;3.35;1.83;;;;;;;;;;5056085;28;20373;-84
2022/08/07 11:12:19;;;;;;;2.60;2.40;;;;;;;;;;5055903;28;20381;-84
2022/08/07 11:15:05;;;;;;;2.05;1.85;;;;;;;;;;5055899;28;20428;-84
2022/08/07 11:17:50;;;;;;;2.05;1.85;;;;;;;;;;5055822;28;20858;-85
2022/08/07 11:20:16;;;;;;;2.00;1.80;;;;;;;;;;5055799;28;20387;-83
2022/08/07 11:22:50;;;;;;;1.98;1.77;;;;;;;;;;5037973;28;20488;-85
2022/08/07 11:25:19;;;;;;;1.75;1.65;;;;;;;;;;5055637;28;20377;-84
2022/08/07 11:27:57;;;;;;;3.05;2.30;;;;;;;;;;5055332;28;20389;-85
2022/08/07 11:30:25;;;;;;;1.73;1.40;;;;;;;;;;5055480;28;20435;-85
2022/08/07 11:32:56;;;;;;;1.50;1.40;;;;;;;;;;5055555;28;20408;-85
2022/08/07 11:35:32;;;;;;;1.45;1.35;;;;;;;;;;5055521;28;20885;-84
2022/08/07 11:38:13;;;;;;;1.55;1.45;;;;;;;;;;5054983;28;20389;-83
2022/08/07 11:40:58;;;;;;;1.55;1.45;;;;;;;;;;5055327;28;20439;-84
2022/08/07 11:43:24;;;;;;;2.58;1.60;;;;;;;;;;5055447;28;20886;-84
2022/08/07 11:45:50;;;;;;;1.50;1.40;;;;;;;;;;5055174;28;20429;-84
2022/08/07 11:48:19;;;;;;;1.55;1.27;;;;;;;;;;5055136;28;20947;-84
2022/08/07 11:50:51;;;;;;;3.50;1.33;;;;;;;;;;5055186;28;20424;-84
2022/08/07 11:53:38;;;;;;;1.58;1.30;;;;;;;;;;5055063;28;20506;-82
2022/08/07 11:56:13;;;;;;;2.60;1.50;;;;;;;;;;5054572;28;20377;-84
2022/08/07 11:58:39;;;;;;;1.57;1.47;;;;;;;;;;5055029;28;20388;-83
2022/08/07 12:01:08;;;;;;;1.60;1.30;;;;;;;;;;5055043;28;20393;-83
2022/08/07 12:03:50;;;;;;;2.30;1.40;;;;;;;;;;5054888;28;20906;-83
2022/08/07 12:06:37;;;;;;;2.50;1.35;;;;;;;;;;5054849;28;20396;-83
2022/08/07 12:09:03;;;;;;;2.10;1.25;;;;;;;;;;5054825;28;20381;-83
2022/08/07 12:11:39;;;;;;;1.40;1.30;;;;;;;;;;5054779;28;20385;-83
2022/08/07 12:14:18;;;;;;;1.92;1.20;;;;;;;;;;5055075;28;20390;-84
2022/08/07 12:16:46;;;;;;;1.73;1.20;;;;;;;;;;5054528;28;20405;-84
2022/08/07 12:19:13;;;;;;;1.43;1.10;;;;;;;;;;5054661;28;20385;-84
2022/08/07 12:21:39;;;;;;;1.40;1.30;;;;;;;;;;5054646;28;20464;-85
2022/08/07 12:24:08;;;;;;;2.00;1.55;;;;;;;;;;5054502;28;20612;-83
2022/08/07 12:26:40;;;;;;;1.40;1.30;;;;;;;;;;5054363;28;20476;-83
2022/08/07 12:29:18;;;;;;;1.90;1.30;;;;;;;;;;5049540;28;20373;-84
2022/08/07 12:31:53;;;;;;;1.77;1.63;;;;;;;;;;5054587;28;20396;-84
2022/08/07 12:34:20;;;;;;;1.63;1.42;;;;;;;;;;5054366;28;20413;-83
2022/08/07 12:36:48;;;;;;;1.27;1.17;;;;;;;;;;5054196;28;20472;-83
2022/08/07 12:39:14;;;;;;;2.20;1.50;;;;;;;;;;5054268;28;20416;-84
2022/08/07 12:41:41;;;;;;;1.30;1.20;;;;;;;;;;5054410;28;20385;-83
2022/08/07 12:44:08;;;;;;;1.15;1.00;;;;;;;;;;5054135;28;20405;-84
2022/08/07 12:46:53;;;;;;;1.52;1.13;;;;;;;;;;5054137;28;20759;-84
2022/08/07 12:49:34;;;;;;;1.30;1.20;;;;;;;;;;5054054;28;20898;-83
2022/08/07 12:52:07;;;;;;;1.10;1.10;;;;;;;;;;5054101;28;20385;-85
2022/08/07 12:54:38;;;;;;;1.40;1.30;;;;;;;;;;5053985;28;20454;-83
2022/08/07 12:57:05;;;;;;;1.70;1.30;;;;;;;;;;5054261;28;20511;-83
2022/08/07 12:59:33;;;;;;;1.63;1.10;;;;;;;;;;5053534;28;20370;-84
2022/08/07 13:02:02;;;;;;;1.38;1.08;;;;;;;;;;5053776;28;20377;-83
2022/08/07 13:04:33;;;;;;;1.48;1.20;;;;;;;;;;5053877;28;20739;-85
2022/08/07 13:07:08;;;;;;;2.45;1.10;;;;;;;;;;5053921;28;20373;-83
2022/08/07 13:09:45;;;;;;;1.35;1.20;;;;;;;;;;5053780;28;20389;-84
2022/08/07 13:12:11;;;;;;;1.15;1.10;;;;;;;;;;5053798;28;20376;-84
2022/08/07 13:14:46;;;;;;;1.65;1.10;;;;;;;;;;5053613;28;20464;-83
2022/08/07 13:17:16;;;;;;;1.20;1.10;;;;;;;;;;5053658;28;20778;-83
2022/08/07 13:19:46;;;;;;;1.40;1.27;;;;;;;;;;5053056;28;20378;-84
2022/08/07 13:22:15;;;;;;;2.00;1.60;;;;;;;;;;5053399;28;20433;-85
2022/08/07 13:24:53;;;;;;;1.58;1.40;;;;;;;;;;5053497;28;20381;-84
2022/08/07 13:27:35;;;;;;;2.08;1.17;;;;;;;;;;5053152;28;20402;-83
2022/08/07 13:30:03;;;;;;;1.65;1.13;;;;;;;;;;5053318;28;20409;-84
2022/08/07 13:32:32;;;;;;;2.05;1.23;;;;;;;;;;5053724;28;20374;-84
2022/08/07 13:35:04;;;;;;;1.52;1.05;;;;;;;;;;5053354;28;20386;-83
2022/08/07 13:37:49;;;;;;;1.80;1.20;;;;;;;;;;5053107;28;20906;-83
2022/08/07 13:40:33;;;;;;;1.00;1.00;;;;;;;;;;5052572;28;20460;-83
2022/08/07 13:43:01;;;;;;;1.33;1.23;;;;;;;;;;5052900;28;20456;-84
2022/08/07 13:45:28;;;;;;;1.13;1.00;;;;;;;;;;5053020;28;20899;-83
2022/08/07 13:47:55;;;;;;;2.03;0.95;;;;;;;;;;5052897;28;20482;-82
2022/08/07 13:50:23;;;;;;;1.63;0.98;;;;;;;;;;5052917;28;20385;-84
2022/08/07 13:52:50;;;;;;;1.03;0.93;;;;;;;;;;5052501;28;20389;-84
2022/08/07 13:55:18;;;;;;;2.13;1.13;;;;;;;;;;5052990;28;20429;-83
2022/08/07 13:57:45;;;;;;;1.10;1.00;;;;;;;;;;5052711;28;20377;-83
2022/08/07 14:00:11;;;;;;;1.30;0.80;;;;;;;;;;5052777;28;20439;-84
2022/08/07 14:02:37;;;;;;;2.42;1.05;;;;;;;;;;5052596;28;20433;-83
2022/08/07 14:05:07;;;;;;;1.50;0.90;;;;;;;;;;5052521;28;20389;-83
2022/08/07 14:07:41;;;;;;;0.90;0.90;;;;;;;;;;5052486;28;20373;-83
2022/08/07 14:10:07;;;;;;;0.95;0.85;;;;;;;;;;5034837;28;20875;-84
2022/08/07 14:12:36;;;;;;;0.90;0.90;;;;;;;;;;5052577;28;20400;-83
2022/08/07 14:15:08;;;;;;;1.80;0.80;;;;;;;;;;5052377;28;20374;-84
2022/08/07 14:17:35;;;;;;;1.67;1.10;;;;;;;;;;5052398;28;20388;-84
2022/08/07 14:20:09;;;;;;;0.98;0.88;;;;;;;;;;5052318;28;20431;-84
2022/08/07 14:22:37;;;;;;;1.08;0.98;;;;;;;;;;5052483;28;20409;-84
2022/08/07 14:25:07;;;;;;;0.90;0.80;;;;;;;;;;5052521;28;20421;-83
2022/08/07 14:27:36;;;;;;;2.10;1.20;;;;;;;;;;5052224;28;20405;-84
2022/08/07 14:30:04;;;;;;;1.73;0.98;;;;;;;;;;5052230;28;20884;-83
2022/08/07 14:32:31;;;;;;;1.33;0.90;;;;;;;;;;5034457;28;20381;-84
2022/08/07 14:35:00;;;;;;;1.10;0.90;;;;;;;;;;5052543;28;20439;-84
2022/08/07 14:37:27;;;;;;;1.50;1.03;;;;;;;;;;5052086;28;20457;-81
2022/08/07 14:39:53;;;;;;;2.58;0.93;;;;;;;;;;5052168;28;20415;-81
2022/08/07 14:42:22;;;;;;;1.58;1.00;;;;;;;;;;5052013;28;20392;-81
2022/08/07 14:44:52;;;;;;;1.02;0.90;;;;;;;;;;5034248;28;20903;-84
2022/08/07 14:47:19;;;;;;;1.77;1.08;;;;;;;;;;5052024;28;20462;-83
2022/08/07 14:49:47;;;;;;;1.60;1.08;;;;;;;;;;5052019;28;20381;-83
2022/08/07 14:52:14;;;;;;;1.15;1.00;;;;;;;;;;5052363;28;20434;-83
2022/08/07 14:54:40;;;;;;;2.22;1.10;;;;;;;;;;5034048;28;20766;-83
2022/08/07 14:57:09;;;;;;;1.00;1.00;;;;;;;;;;5050006;28;20790;-82